Time;durP1;ratioP1;P1;durP2;ratioP2;P2;SDS_P1;SDS_P2;PMS_P1;PMS_P2;Temp;Humidity;BMP_temperature;BMP_pressure;BME280_temperature;BME280_humidity;BME280_pressure;Samples;Min_cycle;Max_cycle;Signal;HPM_P1;HPM_P2
2023/12/07 00:02:04;;;;;;;14.32;8.45;;;2.70;89.20;;;;;;9174091;19;20017;-72
2023/12/07 00:05:10;;;;;;;15.07;7.63;;;2.80;89.30;;;;;;9169660;19;20078;-72
2023/12/07 00:08:20;;;;;;;13.88;8.10;;;2.70;89.30;;;;;;9172991;19;20025;-72
2023/12/07 00:11:26;;;;;;;17.67;7.75;;;2.70;89.20;;;;;;9172919;19;20018;-73
2023/12/07 00:14:33;;;;;;;14.25;8.65;;;2.70;89.20;;;;;;9172937;19;20022;-72
2023/12/07 00:17:39;;;;;;;13.75;8.10;;;2.70;89.20;;;;;;9170876;19;20014;-73
2023/12/07 00:20:46;;;;;;;19.55;9.20;;;2.60;89.10;;;;;;9170041;19;20023;-72
2023/12/07 00:23:54;;;;;;;14.85;8.50;;;2.60;89.20;;;;;;9177302;19;20014;-68
2023/12/07 00:27:02;;;;;;;15.70;8.88;;;2.60;89.20;;;;;;9181630;19;20022;-68
2023/12/07 00:30:08;;;;;;;15.25;8.98;;;2.60;89.20;;;;;;9181051;19;20018;-68
2023/12/07 00:33:16;;;;;;;16.05;9.30;;;2.60;89.20;;;;;;9180588;19;20015;-68
2023/12/07 00:36:22;;;;;;;21.65;8.70;;;2.50;89.20;;;;;;9177848;19;20029;-67
2023/12/07 00:39:32;;;;;;;14.90;8.32;;;2.60;89.30;;;;;;9180794;19;20015;-68
2023/12/07 00:42:38;;;;;;;18.30;9.68;;;2.50;89.30;;;;;;9181079;19;20479;-67
2023/12/07 00:45:45;;;;;;;17.85;9.68;;;2.50;89.30;;;;;;9177624;19;20483;-68
2023/12/07 00:48:51;;;;;;;17.42;9.45;;;2.50;89.30;;;;;;9180350;19;20038;-66
2023/12/07 00:51:59;;;;;;;16.02;9.15;;;2.50;89.30;;;;;;9180759;19;20026;-69
2023/12/07 00:55:08;;;;;;;16.02;9.27;;;2.50;89.30;;;;;;9180540;19;20017;-69
2023/12/07 00:58:18;;;;;;;15.55;9.32;;;2.40;89.30;;;;;;9176020;19;20022;-70
2023/12/07 01:01:24;;;;;;;18.08;9.45;;;2.40;89.30;;;;;;9179909;19;20031;-67
2023/12/07 01:04:32;;;;;;;18.95;10.48;;;2.40;89.30;;;;;;9179208;19;20377;-68
2023/12/07 01:07:37;;;;;;;14.90;9.85;;;2.40;89.30;;;;;;9179944;19;20011;-67
2023/12/07 01:10:47;;;;;;;23.52;9.93;;;2.40;89.30;;;;;;9179766;19;20349;-67
2023/12/07 01:13:54;;;;;;;16.20;9.57;;;2.40;89.30;;;;;;9177700;19;20021;-68
2023/12/07 01:17:02;;;;;;;20.23;9.82;;;2.30;89.30;;;;;;9179615;19;20037;-67
2023/12/07 01:20:12;;;;;;;16.80;9.93;;;2.30;89.40;;;;;;9176078;19;20022;-68
2023/12/07 01:23:19;;;;;;;18.13;8.73;;;2.30;89.40;;;;;;9179614;19;20025;-67
2023/12/07 01:26:27;;;;;;;17.23;9.68;;;2.30;89.40;;;;;;9176667;19;20487;-67
2023/12/07 01:29:35;;;;;;;17.90;10.57;;;2.30;89.40;;;;;;9178371;19;20617;-69
2023/12/07 01:32:40;;;;;;;22.20;10.90;;;2.30;89.50;;;;;;9177258;19;20020;-67
2023/12/07 01:35:48;;;;;;;25.40;11.30;;;2.30;89.40;;;;;;9175443;19;20014;-68
2023/12/07 01:38:54;;;;;;;20.17;10.80;;;2.30;89.40;;;;;;9178669;19;20078;-67
2023/12/07 01:42:04;;;;;;;20.63;11.05;;;2.30;89.40;;;;;;9178971;19;20015;-67
2023/12/07 01:45:10;;;;;;;20.23;11.20;;;2.30;89.40;;;;;;9176294;19;20018;-69
2023/12/07 01:48:17;;;;;;;23.25;11.63;;;2.30;89.40;;;;;;9178327;19;20006;-68
2023/12/07 01:51:23;;;;;;;22.77;10.95;;;2.30;89.40;;;;;;9178611;19;20456;-68
2023/12/07 01:54:31;;;;;;;19.60;11.25;;;2.30;89.50;;;;;;9178992;19;20494;-68
2023/12/07 01:57:39;;;;;;;23.05;11.65;;;2.30;89.50;;;;;;9174098;19;20006;-68
2023/12/07 02:00:49;;;;;;;20.17;11.77;;;2.30;89.50;;;;;;9177128;19;20025;-68
2023/12/07 02:03:54;;;;;;;19.17;11.27;;;2.30;89.50;;;;;;9176261;19;20036;-68
2023/12/07 02:07:04;;;;;;;22.52;11.13;;;2.30;89.50;;;;;;9175899;19;20018;-69
2023/12/07 02:10:11;;;;;;;21.85;11.82;;;2.40;89.50;;;;;;9177680;19;20006;-68
2023/12/07 02:13:21;;;;;;;19.63;10.52;;;2.40;89.50;;;;;;9177725;19;20026;-72
2023/12/07 02:16:32;;;;;;;23.55;11.63;;;2.40;89.50;;;;;;9177107;19;20023;-67
2023/12/07 02:19:54;;;;;;;24.83;11.75;;;2.40;90.00;;;;;;9175392;19;20337;-70
2023/12/07 02:23:04;;;;;;;24.17;11.07;;;2.40;89.60;;;;;;9177128;19;20052;-69
2023/12/07 02:26:14;;;;;;;23.92;11.32;;;2.40;89.60;;;;;;9175134;19;20115;-70
2023/12/07 02:29:22;;;;;;;18.83;10.30;;;2.40;89.60;;;;;;9175197;19;20041;-70
2023/12/07 02:32:29;;;;;;;21.35;11.32;;;2.40;89.50;;;;;;9176665;19;20016;-67
2023/12/07 02:35:36;;;;;;;21.25;11.13;;;2.40;89.50;;;;;;9176001;19;20061;-68
2023/12/07 02:38:46;;;;;;;19.55;10.93;;;2.40;89.60;;;;;;9174894;19;20015;-67
2023/12/07 02:41:53;;;;;;;20.80;10.10;;;2.40;89.60;;;;;;9176030;19;20029;-67
2023/12/07 02:45:04;;;;;;;19.42;11.35;;;2.50;89.60;;;;;;9174812;19;20022;-68
2023/12/07 02:48:10;;;;;;;18.98;10.75;;;2.40;89.50;;;;;;9176428;19;20022;-68
2023/12/07 02:51:18;;;;;;;20.13;10.85;;;2.50;89.60;;;;;;9174478;19;20023;-69
2023/12/07 02:54:23;;;;;;;23.30;10.70;;;2.50;89.60;;;;;;9172748;19;20082;-69
2023/12/07 02:57:32;;;;;;;18.17;11.15;;;2.50;89.60;;;;;;9170221;19;20818;-68
2023/12/07 03:00:40;;;;;;;22.60;11.60;;;2.50;89.60;;;;;;9174328;19;20010;-68
2023/12/07 03:03:47;;;;;;;26.63;11.70;;;2.50;89.50;;;;;;9174920;19;20011;-66
2023/12/07 03:06:53;;;;;;;19.30;11.20;;;2.50;89.50;;;;;;9171749;19;20030;-69
2023/12/07 03:10:00;;;;;;;18.95;11.27;;;2.50;89.50;;;;;;9171323;19;20014;-70
2023/12/07 03:13:06;;;;;;;23.45;11.32;;;2.50;89.50;;;;;;9170741;19;20014;-69
2023/12/07 03:16:16;;;;;;;21.38;11.02;;;2.50;89.50;;;;;;9170497;19;20010;-69
2023/12/07 03:19:22;;;;;;;23.08;11.20;;;2.40;89.50;;;;;;9170117;19;20015;-69
2023/12/07 03:22:29;;;;;;;22.05;10.70;;;2.50;90.00;;;;;;9171528;19;20014;-69
2023/12/07 03:25:35;;;;;;;19.27;10.90;;;2.40;89.50;;;;;;9169148;19;20823;-69
2023/12/07 03:28:43;;;;;;;22.77;11.45;;;2.40;90.00;;;;;;9170984;19;20392;-69
2023/12/07 03:31:51;;;;;;;17.38;11.15;;;2.40;89.50;;;;;;9167919;19;20494;-67
2023/12/07 03:34:58;;;;;;;21.25;10.90;;;2.40;89.40;;;;;;9169205;19;20037;-68
2023/12/07 03:38:04;;;;;;;17.77;10.60;;;2.40;89.40;;;;;;9170090;19;20014;-67
2023/12/07 03:41:12;;;;;;;18.40;10.57;;;2.30;89.40;;;;;;9170854;19;20371;-67
2023/12/07 03:44:17;;;;;;;22.65;10.13;;;2.30;89.40;;;;;;9173589;19;20648;-67
2023/12/07 03:47:27;;;;;;;20.10;10.85;;;2.30;89.40;;;;;;9172265;19;20025;-70
2023/12/07 03:50:33;;;;;;;18.30;10.38;;;2.20;89.30;;;;;;9173639;19;20484;-68
2023/12/07 03:53:40;;;;;;;17.15;10.43;;;2.20;89.30;;;;;;9173345;19;20026;-70
2023/12/07 03:56:46;;;;;;;18.80;10.20;;;2.20;89.30;;;;;;9169957;19;20086;-70
2023/12/07 03:59:53;;;;;;;18.63;10.75;;;2.10;89.30;;;;;;9183091;19;20022;-70
2023/12/07 04:03:01;;;;;;;20.60;10.90;;;2.10;89.30;;;;;;9182393;19;20154;-71
2023/12/07 04:06:10;;;;;;;17.38;10.00;;;2.10;89.40;;;;;;9181340;19;20030;-71
2023/12/07 04:09:15;;;;;;;17.95;10.13;;;2.00;89.30;;;;;;9182344;19;20491;-70
2023/12/07 04:12:23;;;;;;;18.67;10.88;;;2.00;89.30;;;;;;9182142;19;20023;-70
2023/12/07 04:15:29;;;;;;;19.50;10.90;;;2.00;89.30;;;;;;9181836;19;20346;-70
2023/12/07 04:18:39;;;;;;;23.42;10.27;;;2.00;89.40;;;;;;9180516;19;20015;-70
2023/12/07 04:21:44;;;;;;;17.15;9.98;;;1.90;89.30;;;;;;9179315;19;20491;-71
2023/12/07 04:24:52;;;;;;;18.92;11.30;;;1.90;89.30;;;;;;9182281;19;20018;-70
2023/12/07 04:27:57;;;;;;;22.38;11.48;;;1.90;89.30;;;;;;9179252;19;20022;-70
2023/12/07 04:31:06;;;;;;;21.65;11.10;;;1.90;89.40;;;;;;9181658;19;20022;-71
2023/12/07 04:34:14;;;;;;;21.83;12.10;;;1.80;89.30;;;;;;9179972;19;20014;-71
2023/12/07 04:37:21;;;;;;;21.60;11.98;;;1.80;89.30;;;;;;9181288;19;20026;-71
2023/12/07 04:40:28;;;;;;;22.33;11.95;;;1.80;89.30;;;;;;9181184;19;20018;-70
2023/12/07 04:43:36;;;;;;;25.20;11.50;;;1.80;89.30;;;;;;9181411;19;20487;-71
2023/12/07 04:46:41;;;;;;;28.65;12.23;;;1.80;89.40;;;;;;9179380;19;20754;-71
2023/12/07 04:49:52;;;;;;;25.95;12.65;;;1.80;89.40;;;;;;9180288;19;20049;-71
2023/12/07 04:52:57;;;;;;;23.35;12.55;;;1.70;89.30;;;;;;9180562;19;20082;-70
2023/12/07 04:56:06;;;;;;;23.80;13.48;;;1.70;89.40;;;;;;9179846;19;20022;-71
2023/12/07 04:59:12;;;;;;;27.88;13.43;;;1.70;89.30;;;;;;9174852;19;20014;-70
2023/12/07 05:02:20;;;;;;;27.73;13.93;;;1.70;89.30;;;;;;9180306;19;20116;-71
2023/12/07 05:05:28;;;;;;;21.75;12.63;;;1.70;89.40;;;;;;9180091;19;20745;-67
2023/12/07 05:08:35;;;;;;;24.83;13.32;;;1.70;89.40;;;;;;9176880;19;20018;-66
2023/12/07 05:11:42;;;;;;;28.70;14.15;;;1.70;89.40;;;;;;9179724;19;20801;-69
2023/12/07 05:14:50;;;;;;;30.20;15.07;;;1.70;89.40;;;;;;9179215;19;20803;-67
2023/12/07 05:17:55;;;;;;;28.65;15.30;;;1.60;89.40;;;;;;9177624;19;20856;-67
2023/12/07 05:21:06;;;;;;;29.88;15.00;;;1.60;89.40;;;;;;9179446;19;20030;-67
2023/12/07 05:24:11;;;;;;;26.38;13.80;;;1.60;89.40;;;;;;9179292;19;20017;-68
2023/12/07 05:27:19;;;;;;;26.60;14.18;;;1.60;89.40;;;;;;9177609;19;20025;-67
2023/12/07 05:30:25;;;;;;;26.92;14.48;;;1.60;89.40;;;;;;9178933;19;20010;-66
2023/12/07 05:33:32;;;;;;;41.22;14.57;;;1.60;89.40;;;;;;9178785;19;20018;-67
2023/12/07 05:36:40;;;;;;;24.65;12.73;;;1.60;89.40;;;;;;9179784;19;20025;-66
2023/12/07 05:39:48;;;;;;;19.58;11.45;;;1.60;89.40;;;;;;9178983;19;20018;-66
2023/12/07 05:42:53;;;;;;;17.80;10.82;;;1.60;89.40;;;;;;9179106;19;20484;-67
2023/12/07 05:46:01;;;;;;;21.88;11.50;;;1.60;89.40;;;;;;9178867;19;20801;-68
2023/12/07 05:49:06;;;;;;;20.50;11.48;;;1.60;89.30;;;;;;9176329;19;20031;-70
2023/12/07 05:52:17;;;;;;;18.17;10.38;;;1.60;89.30;;;;;;9178522;19;20026;-70
2023/12/07 05:55:22;;;;;;;25.08;10.85;;;1.60;89.30;;;;;;9178113;19;20022;-68
2023/12/07 05:58:30;;;;;;;19.10;10.00;;;1.60;89.30;;;;;;9172575;19;20025;-68
2023/12/07 06:01:35;;;;;;;26.67;11.18;;;1.60;89.40;;;;;;9175628;19;20038;-70
2023/12/07 06:04:43;;;;;;;26.70;10.45;;;1.60;89.30;;;;;;9174901;19;20026;-68
2023/12/07 06:07:53;;;;;;;18.30;10.93;;;1.60;89.20;;;;;;9175082;19;20019;-68
2023/12/07 06:11:01;;;;;;;29.08;12.82;;;1.60;89.10;;;;;;9175570;19;20014;-68
2023/12/07 06:14:07;;;;;;;19.90;10.80;;;1.50;89.20;;;;;;9173489;19;20468;-69
2023/12/07 06:17:26;;;;;;;18.73;10.18;;;1.50;89.20;;;;;;9174473;19;20519;-67
2023/12/07 06:20:32;;;;;;;18.95;10.38;;;1.50;89.20;;;;;;9173360;19;20037;-69
2023/12/07 06:23:42;;;;;;;19.90;10.13;;;1.50;89.20;;;;;;9177845;19;20019;-68
2023/12/07 06:26:47;;;;;;;16.88;9.68;;;1.50;89.30;;;;;;9176981;19;20022;-70
2023/12/07 06:29:55;;;;;;;17.10;10.30;;;1.50;89.20;;;;;;9178643;19;20022;-70
2023/12/07 06:33:00;;;;;;;17.52;9.82;;;1.50;89.20;;;;;;9178494;19;20115;-69
2023/12/07 06:36:09;;;;;;;36.95;10.00;;;1.50;89.20;;;;;;9178676;19;20026;-68
2023/12/07 06:39:17;;;;;;;22.27;9.40;;;1.50;89.20;;;;;;9179255;19;20014;-69
2023/12/07 06:42:24;;;;;;;17.17;9.70;;;1.50;89.20;;;;;;9178276;19;20014;-67
2023/12/07 06:45:30;;;;;;;20.45;9.65;;;1.50;89.20;;;;;;9175646;19;20014;-69
2023/12/07 06:48:38;;;;;;;19.10;9.85;;;1.50;89.20;;;;;;9174768;19;20030;-68
2023/12/07 06:51:43;;;;;;;20.98;9.40;;;1.50;89.20;;;;;;9174245;19;20449;-68
2023/12/07 06:54:53;;;;;;;14.30;8.75;;;1.50;89.20;;;;;;9175951;19;20007;-66
2023/12/07 06:57:59;;;;;;;23.55;10.00;;;1.50;89.10;;;;;;9171950;19;20018;-68
2023/12/07 07:01:06;;;;;;;42.22;10.65;;;1.50;89.10;;;;;;9174058;19;20025;-66
2023/12/07 07:04:12;;;;;;;30.25;11.77;;;1.50;89.20;;;;;;9173703;19;20601;-67
2023/12/07 07:07:20;;;;;;;19.13;11.02;;;1.50;89.20;;;;;;9174544;19;20026;-69
2023/12/07 07:10:28;;;;;;;18.33;11.07;;;1.40;89.20;;;;;;9173978;19;20018;-68
2023/12/07 07:13:35;;;;;;;22.67;11.18;;;1.40;89.10;;;;;;9172983;19;20866;-70
2023/12/07 07:16:41;;;;;;;40.35;11.43;;;1.40;89.10;;;;;;9172116;19;20026;-70
2023/12/07 07:19:48;;;;;;;22.85;11.27;;;1.40;89.10;;;;;;9172959;19;20029;-66
2023/12/07 07:22:54;;;;;;;36.65;12.10;;;1.40;89.00;;;;;;9174019;19;20018;-67
2023/12/07 07:26:04;;;;;;;28.85;12.30;;;1.40;89.10;;;;;;9172801;19;20425;-67
2023/12/07 07:29:10;;;;;;;23.50;12.10;;;1.40;89.20;;;;;;9172728;19;20019;-66
2023/12/07 07:32:18;;;;;;;21.70;12.75;;;1.40;89.20;;;;;;9178400;19;20115;-67
2023/12/07 07:35:23;;;;;;;29.67;12.18;;;1.40;89.20;;;;;;9182934;19;20018;-67
2023/12/07 07:38:30;;;;;;;22.73;12.02;;;1.40;89.20;;;;;;9183288;19;20111;-68
2023/12/07 07:41:38;;;;;;;23.30;12.48;;;1.40;89.20;;;;;;9181474;19;20010;-66
2023/12/07 07:44:46;;;;;;;28.52;14.05;;;1.40;89.10;;;;;;9182389;19;20368;-68
2023/12/07 07:47:51;;;;;;;27.02;13.55;;;1.40;89.20;;;;;;9183154;19;20045;-67
2023/12/07 07:50:59;;;;;;;29.25;12.43;;;1.40;89.20;;;;;;9181643;19;20022;-67
2023/12/07 07:54:05;;;;;;;30.58;14.82;;;1.40;89.20;;;;;;9183414;19;20021;-67
2023/12/07 07:57:18;;;;;;;40.08;17.92;;;1.40;89.20;;;;;;9179011;19;20030;-67
2023/12/07 08:00:25;;;;;;;36.50;14.90;;;1.40;89.30;;;;;;9180874;19;20018;-67
2023/12/07 08:03:33;;;;;;;38.13;16.75;;;1.40;89.30;;;;;;9178968;19;20036;-66
2023/12/07 08:06:38;;;;;;;33.58;15.40;;;1.40;89.40;;;;;;9177786;19;20015;-67
2023/12/07 08:09:46;;;;;;;32.63;16.80;;;1.40;89.30;;;;;;9174912;19;20021;-67
2023/12/07 08:12:54;;;;;;;36.53;17.77;;;1.40;90.00;;;;;;9179315;19;20025;-66
2023/12/07 08:16:01;;;;;;;43.25;17.17;;;1.50;89.50;;;;;;9181602;19;20010;-67
2023/12/07 08:19:07;;;;;;;36.13;17.27;;;1.50;89.40;;;;;;9181347;19;20018;-68
2023/12/07 08:22:15;;;;;;;81.28;26.67;;;1.50;89.40;;;;;;9182303;19;20010;-67
2023/12/07 08:25:21;;;;;;;52.08;17.63;;;1.50;89.40;;;;;;9181006;19;20014;-67
2023/12/07 08:28:31;;;;;;;38.20;16.63;;;1.50;89.50;;;;;;9180768;19;20577;-67
2023/12/07 08:31:36;;;;;;;60.72;17.33;;;1.50;89.40;;;;;;9181355;19;20056;-66
2023/12/07 08:34:44;;;;;;;38.95;17.92;;;1.60;89.50;;;;;;9181140;19;20024;-73
2023/12/07 08:37:50;;;;;;;39.45;17.40;;;1.60;89.50;;;;;;9181013;19;20010;-73
2023/12/07 08:40:58;;;;;;;39.97;17.10;;;1.60;89.40;;;;;;9181112;19;20101;-75
2023/12/07 08:44:06;;;;;;;48.55;18.33;;;1.60;89.40;;;;;;9179372;19;20027;-72
2023/12/07 08:47:14;;;;;;;43.88;18.95;;;1.60;89.40;;;;;;9179120;19;20018;-72
2023/12/07 08:50:19;;;;;;;39.00;18.13;;;1.60;89.40;;;;;;9177452;19;20045;-74
2023/12/07 08:53:27;;;;;;;37.75;18.42;;;1.60;89.50;;;;;;9180706;19;20011;-74
2023/12/07 08:56:32;;;;;;;44.70;19.20;;;1.60;89.50;;;;;;9177909;19;20376;-73
2023/12/07 08:59:42;;;;;;;46.90;19.23;;;1.70;89.60;;;;;;9179902;19;20014;-73
2023/12/07 09:02:48;;;;;;;43.00;18.50;;;1.70;89.60;;;;;;9176713;19;20018;-73
2023/12/07 09:05:55;;;;;;;40.13;18.30;;;1.70;89.50;;;;;;9178957;19;20014;-71
2023/12/07 09:09:01;;;;;;;45.90;18.98;;;1.70;89.50;;;;;;9179866;19;20019;-72
2023/12/07 09:12:09;;;;;;;45.90;20.33;;;1.80;89.60;;;;;;9180465;19;20010;-73
2023/12/07 09:15:17;;;;;;;46.60;21.55;;;1.80;89.70;;;;;;9180034;19;20018;-72
2023/12/07 09:18:24;;;;;;;40.90;18.88;;;1.80;89.70;;;;;;9179325;19;20011;-73
2023/12/07 09:21:30;;;;;;;43.80;20.00;;;1.80;89.60;;;;;;9180253;19;20479;-73
2023/12/07 09:24:37;;;;;;;50.85;19.52;;;1.80;89.60;;;;;;9179944;19;20025;-71
2023/12/07 09:27:43;;;;;;;47.20;18.83;;;1.90;89.60;;;;;;9179654;19;20479;-73
2023/12/07 09:30:54;;;;;;;42.70;18.08;;;1.80;89.50;;;;;;9174888;19;20014;-72
2023/12/07 09:33:59;;;;;;;53.33;19.70;;;1.90;89.60;;;;;;9178765;19;20591;-73
2023/12/07 09:37:19;;;;;;;43.20;19.20;;;1.90;89.70;;;;;;9178972;19;20075;-72
2023/12/07 09:40:27;;;;;;;45.70;20.77;;;1.90;89.60;;;;;;9178917;19;20006;-73
2023/12/07 09:43:35;;;;;;;56.83;20.65;;;1.90;89.70;;;;;;9178115;19;20484;-73
2023/12/07 09:46:43;;;;;;;48.80;20.85;;;1.90;89.70;;;;;;9178197;19;20054;-74
2023/12/07 09:49:51;;;;;;;45.85;20.60;;;2.00;89.80;;;;;;9176761;19;20021;-74
2023/12/07 09:52:59;;;;;;;42.90;19.88;;;2.00;89.80;;;;;;9178214;19;20043;-73
2023/12/07 09:56:14;;;;;;;51.05;21.98;;;2.00;89.80;;;;;;9175254;19;20456;-74
2023/12/07 09:59:20;;;;;;;59.78;21.83;;;2.10;89.90;;;;;;9170777;19;20021;-73
2023/12/07 10:02:31;;;;;;;50.72;20.27;;;2.10;89.80;;;;;;9177610;19;20022;-74
2023/12/07 10:05:36;;;;;;;55.95;21.83;;;2.20;90.00;;;;;;9177895;19;20434;-73
2023/12/07 10:08:46;;;;;;;61.22;22.60;;;2.20;89.90;;;;;;9178503;19;20026;-74
2023/12/07 10:11:52;;;;;;;54.03;22.52;;;2.20;90.00;;;;;;9175659;19;20011;-74
2023/12/07 10:15:00;;;;;;;67.72;22.98;;;2.20;89.90;;;;;;9174995;19;20022;-74
2023/12/07 10:18:26;;;;;;;72.80;23.90;;;2.30;89.90;;;;;;9216849;19;20745;-74
2023/12/07 10:21:36;;;;;;;55.90;22.25;;;2.30;89.90;;;;;;9219676;19;20021;-74
2023/12/07 10:24:42;;;;;;;96.47;25.25;;;2.30;89.80;;;;;;9220008;19;20468;-75
2023/12/07 10:27:50;;;;;;;64.32;23.27;;;2.40;89.90;;;;;;9219559;19;20078;-74
2023/12/07 10:30:55;;;;;;;66.00;24.10;;;2.40;90.00;;;;;;9219301;19;20014;-75
2023/12/07 10:34:07;;;;;;;71.07;22.40;;;2.40;90.00;;;;;;9219086;19;20018;-74
2023/12/07 10:37:12;;;;;;;70.57;22.60;;;2.50;90.00;;;;;;9217479;19;20022;-73
2023/12/07 10:40:21;;;;;;;70.93;23.17;;;2.50;90.00;;;;;;9219389;19;20014;-75
2023/12/07 10:43:26;;;;;;;67.53;22.73;;;2.50;90.00;;;;;;9219514;19;20085;-74
2023/12/07 10:46:36;;;;;;;78.20;23.30;;;2.60;90.00;;;;;;9218640;19;20074;-74
2023/12/07 10:49:49;;;;;;;74.93;24.05;;;2.60;90.00;;;;;;9218914;19;20472;-74
2023/12/07 10:52:59;;;;;;;66.50;22.75;;;2.70;90.00;;;;;;9218886;19;20056;-76
2023/12/07 10:56:07;;;;;;;63.25;21.83;;;2.70;90.00;;;;;;9214448;19;20029;-70
2023/12/07 10:59:15;;;;;;;70.93;23.08;;;2.70;90.00;;;;;;9214996;19;20018;-71
2023/12/07 11:02:36;;;;;;;66.07;22.50;;;2.80;90.10;;;;;;9218131;19;20056;-72
2023/12/07 11:05:47;;;;;;;74.32;23.88;;;2.80;90.10;;;;;;9217775;19;20025;-71
2023/12/07 11:08:56;;;;;;;74.32;23.85;;;2.90;90.10;;;;;;9218949;19;20014;-71
2023/12/07 11:12:09;;;;;;;80.82;24.50;;;2.90;90.10;;;;;;9217631;19;20022;-71
2023/12/07 11:15:14;;;;;;;88.25;25.63;;;2.90;90.10;;;;;;9217787;19;20042;-71
2023/12/07 11:18:22;;;;;;;78.88;24.13;;;3.00;90.10;;;;;;9215279;19;20018;-71
2023/12/07 11:21:30;;;;;;;83.35;24.08;;;3.00;90.10;;;;;;9217626;19;20020;-72
2023/12/07 11:24:38;;;;;;;87.43;26.33;;;3.10;90.10;;;;;;9217352;19;20014;-70
2023/12/07 11:27:48;;;;;;;86.68;24.92;;;3.10;90.10;;;;;;9203076;19;20014;-71
2023/12/07 11:30:57;;;;;;;94.72;27.65;;;3.20;90.10;;;;;;9181789;19;20479;-71
2023/12/07 11:34:13;;;;;;;88.93;25.95;;;3.20;90.10;;;;;;9179542;19;20019;-71
2023/12/07 11:37:24;;;;;;;89.72;27.80;;;3.20;90.10;;;;;;9180027;19;20018;-70
2023/12/07 11:40:32;;;;;;;83.95;26.42;;;3.30;90.20;;;;;;9181018;19;20020;-72
2023/12/07 11:43:45;;;;;;;88.50;25.25;;;3.30;90.20;;;;;;9179287;19;20026;-71
2023/12/07 11:46:52;;;;;;;96.63;27.33;;;3.30;90.20;;;;;;9180538;19;20703;-72
2023/12/07 11:50:06;;;;;;;85.40;25.75;;;3.40;90.10;;;;;;9177897;19;20019;-72
2023/12/07 11:53:14;;;;;;;89.95;29.13;;;3.40;90.20;;;;;;9178919;19;20011;-71
2023/12/07 11:56:22;;;;;;;95.78;26.65;;;3.50;90.20;;;;;;9179684;19;20025;-70
2023/12/07 11:59:27;;;;;;;95.30;27.98;;;3.50;90.10;;;;;;9175381;19;20643;-72
2023/12/07 12:02:40;;;;;;;95.10;29.42;;;3.50;90.20;;;;;;9179899;19;20018;-72
2023/12/07 12:05:46;;;;;;;101.97;28.95;;;3.50;90.10;;;;;;9178006;19;20015;-70
2023/12/07 12:08:58;;;;;;;100.72;29.88;;;3.60;90.20;;;;;;9180148;19;20018;-71
2023/12/07 12:12:06;;;;;;;93.25;28.90;;;3.60;90.20;;;;;;9177966;19;20014;-70
2023/12/07 12:15:13;;;;;;;93.53;27.73;;;3.60;90.20;;;;;;9180327;19;20018;-71
2023/12/07 12:18:20;;;;;;;94.75;28.00;;;3.70;90.20;;;;;;9177881;19;20034;-70
2023/12/07 12:21:26;;;;;;;90.30;27.13;;;3.70;90.20;;;;;;9180140;19;20461;-71
2023/12/07 12:24:37;;;;;;;96.93;28.42;;;3.70;90.20;;;;;;9179704;19;20015;-72
2023/12/07 12:27:44;;;;;;;92.20;27.15;;;3.80;90.20;;;;;;9178711;19;20018;-72
2023/12/07 12:30:53;;;;;;;80.05;25.23;;;3.80;90.20;;;;;;9178964;19;20352;-69
2023/12/07 12:34:00;;;;;;;91.25;27.95;;;3.80;90.20;;;;;;9179251;19;20022;-71
2023/12/07 12:37:12;;;;;;;86.15;26.50;;;3.90;90.20;;;;;;9178808;19;20019;-70
2023/12/07 12:40:22;;;;;;;87.28;27.35;;;3.90;90.20;;;;;;9174789;19;20468;-71
2023/12/07 12:43:31;;;;;;;80.35;25.98;;;3.90;90.20;;;;;;9178647;19;20376;-70
2023/12/07 12:46:37;;;;;;;73.72;22.67;;;3.90;90.20;;;;;;9177745;19;20406;-70
2023/12/07 12:49:46;;;;;;;71.90;24.65;;;3.90;90.10;;;;;;9178688;19;20014;-70
2023/12/07 12:52:52;;;;;;;71.57;24.00;;;3.90;90.20;;;;;;9178240;19;20353;-71
2023/12/07 12:56:02;;;;;;;65.35;24.10;;;4.00;90.20;;;;;;9178557;19;20022;-71
2023/12/07 12:59:08;;;;;;;65.57;23.13;;;4.00;90.20;;;;;;9171942;19;20094;-70
2023/12/07 13:02:16;;;;;;;62.22;23.63;;;4.00;90.20;;;;;;9176194;19;20018;-70
2023/12/07 13:05:23;;;;;;;70.18;24.48;;;4.00;90.20;;;;;;9177245;19;20003;-70
2023/12/07 13:08:33;;;;;;;63.25;22.80;;;4.00;90.20;;;;;;9177271;19;20015;-69
2023/12/07 13:11:41;;;;;;;67.60;23.92;;;4.00;90.20;;;;;;9175931;19;20014;-70
2023/12/07 13:14:49;;;;;;;70.82;25.70;;;4.10;90.20;;;;;;9177326;19;20044;-68
2023/12/07 13:17:54;;;;;;;56.55;21.90;;;4.10;90.20;;;;;;9175397;19;20014;-70
2023/12/07 13:21:02;;;;;;;63.88;23.27;;;4.10;90.20;;;;;;9177063;19;20022;-69
2023/12/07 13:24:12;;;;;;;65.35;24.13;;;4.10;90.20;;;;;;9177380;19;20011;-72
2023/12/07 13:27:22;;;;;;;59.15;22.58;;;4.20;90.30;;;;;;9175623;19;20007;-69
2023/12/07 13:30:33;;;;;;;75.97;24.77;;;4.20;90.20;;;;;;9177373;19;20500;-69
2023/12/07 13:33:41;;;;;;;61.88;23.58;;;4.20;90.20;;;;;;9176576;19;20042;-69
2023/12/07 13:36:59;;;;;;;63.30;24.45;;;4.20;90.20;;;;;;9176772;19;20388;-70
2023/12/07 13:40:10;;;;;;;66.70;25.52;;;4.20;90.20;;;;;;9177155;19;20490;-69
2023/12/07 13:43:18;;;;;;;59.33;24.67;;;4.20;90.20;;;;;;9174765;19;20022;-70
2023/12/07 13:46:26;;;;;;;62.40;24.35;;;4.20;90.20;;;;;;9175132;19;20089;-70
2023/12/07 13:49:31;;;;;;;64.78;23.80;;;4.20;90.20;;;;;;9176656;19;20010;-70
2023/12/07 13:52:42;;;;;;;61.13;26.00;;;4.30;90.20;;;;;;9175882;19;20014;-69
2023/12/07 13:55:50;;;;;;;62.90;24.65;;;4.20;90.20;;;;;;9176209;19;20010;-70
2023/12/07 13:59:01;;;;;;;59.35;24.95;;;4.20;90.20;;;;;;9169949;19;20019;-68
2023/12/07 14:02:07;;;;;;;54.53;23.85;;;4.30;90.30;;;;;;9175896;19;20010;-71
2023/12/07 14:05:14;;;;;;;65.50;25.70;;;4.30;90.30;;;;;;9175495;19;20029;-70
2023/12/07 14:08:21;;;;;;;59.05;24.58;;;4.30;90.30;;;;;;9174930;19;20365;-70
2023/12/07 14:11:29;;;;;;;63.88;25.33;;;4.30;90.30;;;;;;9175481;19;20011;-71
2023/12/07 14:14:37;;;;;;;63.30;25.38;;;4.30;90.30;;;;;;9173293;19;20280;-72
2023/12/07 14:17:44;;;;;;;66.70;26.73;;;4.30;90.30;;;;;;9173720;19;20015;-71
2023/12/07 14:20:57;;;;;;;62.42;25.85;;;4.40;90.30;;;;;;9175286;19;20018;-70
2023/12/07 14:24:26;;;;;;;67.13;25.75;;;4.40;90.30;;;;;;9174840;19;20018;-72
2023/12/07 14:27:31;;;;;;;68.57;27.88;;;4.40;90.30;;;;;;9174143;19;20026;-70
2023/12/07 14:30:42;;;;;;;79.35;29.83;;;4.40;90.30;;;;;;9172272;19;20502;-72
2023/12/07 14:33:48;;;;;;;92.65;32.45;;;4.40;90.30;;;;;;9174085;19;20018;-71
2023/12/07 14:36:57;;;;;;;69.78;29.83;;;4.40;90.20;;;;;;9174991;19;20027;-72
2023/12/07 14:40:05;;;;;;;65.82;27.45;;;4.40;90.20;;;;;;9172734;19;20019;-71
2023/12/07 14:43:12;;;;;;;62.20;27.25;;;4.40;90.20;;;;;;9174664;19;20371;-73
2023/12/07 14:46:20;;;;;;;70.30;29.63;;;4.40;90.30;;;;;;9174762;19;20475;-72
2023/12/07 14:49:28;;;;;;;68.22;27.73;;;4.40;90.30;;;;;;9174030;19;20042;-72
2023/12/07 14:52:34;;;;;;;69.55;28.60;;;4.40;90.30;;;;;;9174020;19;20018;-72
2023/12/07 14:55:41;;;;;;;66.00;27.98;;;4.40;90.60;;;;;;9172286;19;20018;-72
2023/12/07 14:58:47;;;;;;;67.60;27.35;;;4.40;90.30;;;;;;9167711;19;20467;-71
2023/12/07 15:01:57;;;;;;;65.78;26.23;;;4.40;90.30;;;;;;9170725;19;20022;-71
2023/12/07 15:05:04;;;;;;;62.33;27.25;;;4.40;90.30;;;;;;9181886;19;20038;-72
2023/12/07 15:08:12;;;;;;;71.72;27.42;;;4.40;90.20;;;;;;9181675;19;20618;-72
2023/12/07 15:11:18;;;;;;;64.72;26.73;;;4.50;90.30;;;;;;9182709;19;20380;-72
2023/12/07 15:14:25;;;;;;;65.15;26.85;;;4.50;90.30;;;;;;9181997;19;20030;-72
2023/12/07 15:17:45;;;;;;;60.30;25.27;;;4.40;90.20;;;;;;9181041;19;20428;-71
2023/12/07 15:20:53;;;;;;;61.17;25.90;;;4.40;90.20;;;;;;9178954;19;20048;-71
2023/12/07 15:23:59;;;;;;;58.17;26.30;;;4.40;90.20;;;;;;9181125;19;20002;-69
2023/12/07 15:27:07;;;;;;;58.65;25.20;;;4.40;90.20;;;;;;9182388;19;20474;-70
2023/12/07 15:30:15;;;;;;;63.58;26.33;;;4.40;90.20;;;;;;9182590;19;20021;-69
2023/12/07 15:33:25;;;;;;;67.65;26.17;;;4.40;90.20;;;;;;9179863;19;20383;-70
2023/12/07 15:36:33;;;;;;;62.45;25.20;;;4.40;90.20;;;;;;9175997;19;20365;-71
2023/12/07 15:39:40;;;;;;;63.20;26.70;;;4.40;90.50;;;;;;9177129;19;20495;-70
2023/12/07 15:42:46;;;;;;;64.13;25.92;;;4.30;90.40;;;;;;9178446;19;20021;-71
2023/12/07 15:45:54;;;;;;;59.40;25.42;;;4.30;90.10;;;;;;9177465;19;20010;-70
2023/12/07 15:49:02;;;;;;;62.40;25.17;;;4.30;90.20;;;;;;9179692;19;20025;-71
2023/12/07 15:52:10;;;;;;;70.10;27.15;;;4.30;90.20;;;;;;9180673;19;20467;-71
2023/12/07 15:55:17;;;;;;;59.47;25.77;;;4.20;90.10;;;;;;9181620;19;20022;-70
2023/12/07 15:58:25;;;;;;;60.85;25.50;;;4.20;90.10;;;;;;9176036;19;20036;-71
2023/12/07 16:01:30;;;;;;;63.60;25.27;;;4.20;90.10;;;;;;9179179;19;20018;-70
2023/12/07 16:04:41;;;;;;;58.58;23.75;;;4.20;90.10;;;;;;9177714;19;20022;-70
2023/12/07 16:07:46;;;;;;;57.75;24.40;;;4.10;90.10;;;;;;9176671;19;20022;-70